sensor_id;sensor_type;location;lat;lon;timestamp;temperature;humidity
6333;DHT22;3199;49.102;8.856;2022-07-26T00:02:15;23.00;76.80
6333;DHT22;3199;49.102;8.856;2022-07-26T00:04:41;23.00;76.60
6333;DHT22;3199;49.102;8.856;2022-07-26T00:07:06;23.00;76.50
6333;DHT22;3199;49.102;8.856;2022-07-26T00:09:32;23.00;76.20
6333;DHT22;3199;49.102;8.856;2022-07-26T00:11:58;23.00;76.70
6333;DHT22;3199;49.102;8.856;2022-07-26T00:14:23;23.00;75.80
6333;DHT22;3199;49.102;8.856;2022-07-26T00:16:49;23.00;75.80
6333;DHT22;3199;49.102;8.856;2022-07-26T00:19:15;23.00;75.70
6333;DHT22;3199;49.102;8.856;2022-07-26T00:21:41;23.00;75.00
6333;DHT22;3199;49.102;8.856;2022-07-26T00:24:25;23.10;75.10
6333;DHT22;3199;49.102;8.856;2022-07-26T00:26:50;23.20;74.60
6333;DHT22;3199;49.102;8.856;2022-07-26T00:29:16;23.20;74.80
6333;DHT22;3199;49.102;8.856;2022-07-26T00:31:41;23.20;75.10
6333;DHT22;3199;49.102;8.856;2022-07-26T00:34:07;23.20;75.60
6333;DHT22;3199;49.102;8.856;2022-07-26T00:36:32;23.20;75.90
6333;DHT22;3199;49.102;8.856;2022-07-26T00:38:58;23.30;76.00
6333;DHT22;3199;49.102;8.856;2022-07-26T00:41:23;23.40;75.70
6333;DHT22;3199;49.102;8.856;2022-07-26T00:43:54;23.40;75.40
6333;DHT22;3199;49.102;8.856;2022-07-26T00:46:20;23.50;75.00
6333;DHT22;3199;49.102;8.856;2022-07-26T00:48:45;23.40;74.80
6333;DHT22;3199;49.102;8.856;2022-07-26T00:51:11;23.50;75.30
6333;DHT22;3199;49.102;8.856;2022-07-26T00:53:36;23.50;75.10
6333;DHT22;3199;49.102;8.856;2022-07-26T00:56:02;23.50;74.20
6333;DHT22;3199;49.102;8.856;2022-07-26T00:58:28;23.60;74.70
6333;DHT22;3199;49.102;8.856;2022-07-26T01:00:53;23.50;75.00
6333;DHT22;3199;49.102;8.856;2022-07-26T01:03:19;23.40;75.10
6333;DHT22;3199;49.102;8.856;2022-07-26T01:05:44;23.30;75.60
6333;DHT22;3199;49.102;8.856;2022-07-26T01:08:10;23.20;76.00
6333;DHT22;3199;49.102;8.856;2022-07-26T01:10:36;23.20;76.60
6333;DHT22;3199;49.102;8.856;2022-07-26T01:13:02;23.20;76.80
6333;DHT22;3199;49.102;8.856;2022-07-26T01:15:27;23.30;77.10
6333;DHT22;3199;49.102;8.856;2022-07-26T01:17:53;23.30;77.00
6333;DHT22;3199;49.102;8.856;2022-07-26T01:20:18;23.30;77.30
6333;DHT22;3199;49.102;8.856;2022-07-26T01:22:44;23.30;77.30
6333;DHT22;3199;49.102;8.856;2022-07-26T01:25:09;23.30;77.80
6333;DHT22;3199;49.102;8.856;2022-07-26T01:27:35;23.40;78.50
6333;DHT22;3199;49.102;8.856;2022-07-26T01:30:05;23.30;78.60
6333;DHT22;3199;49.102;8.856;2022-07-26T01:32:31;23.40;79.00
6333;DHT22;3199;49.102;8.856;2022-07-26T01:34:56;23.30;79.20
6333;DHT22;3199;49.102;8.856;2022-07-26T01:37:22;23.20;79.80
6333;DHT22;3199;49.102;8.856;2022-07-26T01:39:47;23.20;80.40
6333;DHT22;3199;49.102;8.856;2022-07-26T01:42:13;23.10;80.60
6333;DHT22;3199;49.102;8.856;2022-07-26T01:44:38;23.00;80.80
6333;DHT22;3199;49.102;8.856;2022-07-26T01:47:05;23.00;81.80
6333;DHT22;3199;49.102;8.856;2022-07-26T01:49:30;23.10;82.50
6333;DHT22;3199;49.102;8.856;2022-07-26T01:51:55;23.00;82.40
6333;DHT22;3199;49.102;8.856;2022-07-26T01:54:21;23.00;82.50
6333;DHT22;3199;49.102;8.856;2022-07-26T01:56:47;23.00;83.30
6333;DHT22;3199;49.102;8.856;2022-07-26T01:59:12;23.00;84.50
6333;DHT22;3199;49.102;8.856;2022-07-26T02:01:38;22.90;85.00
6333;DHT22;3199;49.102;8.856;2022-07-26T02:04:03;22.80;85.30
6333;DHT22;3199;49.102;8.856;2022-07-26T02:06:29;22.70;86.50
6333;DHT22;3199;49.102;8.856;2022-07-26T02:08:54;22.70;87.80
6333;DHT22;3199;49.102;8.856;2022-07-26T02:11:20;22.70;88.20
6333;DHT22;3199;49.102;8.856;2022-07-26T02:13:45;22.80;88.80
6333;DHT22;3199;49.102;8.856;2022-07-26T02:16:13;22.80;89.30
6333;DHT22;3199;49.102;8.856;2022-07-26T02:18:40;22.80;90.00
6333;DHT22;3199;49.102;8.856;2022-07-26T02:21:08;22.70;90.20
6333;DHT22;3199;49.102;8.856;2022-07-26T02:23:33;22.70;90.70
6333;DHT22;3199;49.102;8.856;2022-07-26T02:25:59;22.70;91.20
6333;DHT22;3199;49.102;8.856;2022-07-26T02:28:25;22.60;91.60
6333;DHT22;3199;49.102;8.856;2022-07-26T02:30:51;22.40;92.40
6333;DHT22;3199;49.102;8.856;2022-07-26T02:33:17;22.30;93.20
6333;DHT22;3199;49.102;8.856;2022-07-26T02:35:43;22.20;93.90
6333;DHT22;3199;49.102;8.856;2022-07-26T02:38:12;22.20;94.50
6333;DHT22;3199;49.102;8.856;2022-07-26T02:40:39;22.20;95.10
6333;DHT22;3199;49.102;8.856;2022-07-26T02:43:06;22.20;95.80
6333;DHT22;3199;49.102;8.856;2022-07-26T02:45:32;22.20;96.30
6333;DHT22;3199;49.102;8.856;2022-07-26T02:47:58;22.20;96.40
6333;DHT22;3199;49.102;8.856;2022-07-26T02:50:25;22.30;96.70
6333;DHT22;3199;49.102;8.856;2022-07-26T02:52:52;22.30;97.00
6333;DHT22;3199;49.102;8.856;2022-07-26T02:55:21;22.40;97.30
6333;DHT22;3199;49.102;8.856;2022-07-26T02:57:48;22.30;97.60
6333;DHT22;3199;49.102;8.856;2022-07-26T03:00:19;22.30;98.00
6333;DHT22;3199;49.102;8.856;2022-07-26T03:02:45;22.20;98.20
6333;DHT22;3199;49.102;8.856;2022-07-26T03:05:13;22.30;98.60
6333;DHT22;3199;49.102;8.856;2022-07-26T03:07:39;22.20;98.70
6333;DHT22;3199;49.102;8.856;2022-07-26T03:10:05;22.20;99.00
6333;DHT22;3199;49.102;8.856;2022-07-26T03:12:31;22.10;99.10
6333;DHT22;3199;49.102;8.856;2022-07-26T03:14:56;22.00;99.40
6333;DHT22;3199;49.102;8.856;2022-07-26T03:17:22;22.00;99.60
6333;DHT22;3199;49.102;8.856;2022-07-26T03:19:47;21.90;99.80
6333;DHT22;3199;49.102;8.856;2022-07-26T03:22:13;21.80;99.90
6333;DHT22;3199;49.102;8.856;2022-07-26T03:24:38;21.70;99.90
6333;DHT22;3199;49.102;8.856;2022-07-26T03:27:04;21.60;99.90
6333;DHT22;3199;49.102;8.856;2022-07-26T03:29:29;21.60;99.90
6333;DHT22;3199;49.102;8.856;2022-07-26T03:31:55;21.60;99.90
6333;DHT22;3199;49.102;8.856;2022-07-26T03:34:20;21.60;99.90
6333;DHT22;3199;49.102;8.856;2022-07-26T03:36:46;21.70;99.90
6333;DHT22;3199;49.102;8.856;2022-07-26T03:39:12;21.70;99.90
6333;DHT22;3199;49.102;8.856;2022-07-26T03:41:37;21.60;99.90
6333;DHT22;3199;49.102;8.856;2022-07-26T03:44:03;21.60;99.90
6333;DHT22;3199;49.102;8.856;2022-07-26T03:46:29;21.40;99.90
6333;DHT22;3199;49.102;8.856;2022-07-26T03:48:55;21.40;99.90
6333;DHT22;3199;49.102;8.856;2022-07-26T03:51:20;21.40;99.90
6333;DHT22;3199;49.102;8.856;2022-07-26T03:53:46;21.40;99.90
6333;DHT22;3199;49.102;8.856;2022-07-26T03:56:12;21.40;99.90
6333;DHT22;3199;49.102;8.856;2022-07-26T03:59:14;21.40;99.90
6333;DHT22;3199;49.102;8.856;2022-07-26T04:01:39;21.50;99.90
6333;DHT22;3199;49.102;8.856;2022-07-26T04:04:07;21.50;99.90
6333;DHT22;3199;49.102;8.856;2022-07-26T04:06:33;21.40;99.90
6333;DHT22;3199;49.102;8.856;2022-07-26T04:08:59;21.40;99.90
6333;DHT22;3199;49.102;8.856;2022-07-26T04:11:24;21.30;99.90
6333;DHT22;3199;49.102;8.856;2022-07-26T04:13:50;21.30;99.90
6333;DHT22;3199;49.102;8.856;2022-07-26T04:16:16;21.30;99.90
6333;DHT22;3199;49.102;8.856;2022-07-26T04:18:41;21.30;99.90
6333;DHT22;3199;49.102;8.856;2022-07-26T04:21:07;21.30;99.90
6333;DHT22;3199;49.102;8.856;2022-07-26T04:23:32;21.20;99.90
6333;DHT22;3199;49.102;8.856;2022-07-26T04:25:58;21.20;99.90
6333;DHT22;3199;49.102;8.856;2022-07-26T04:28:23;21.20;99.90
6333;DHT22;3199;49.102;8.856;2022-07-26T04:30:53;21.20;99.90
6333;DHT22;3199;49.102;8.856;2022-07-26T04:33:19;21.20;99.90
6333;DHT22;3199;49.102;8.856;2022-07-26T04:35:44;21.20;99.90
6333;DHT22;3199;49.102;8.856;2022-07-26T04:38:10;21.10;99.90
6333;DHT22;3199;49.102;8.856;2022-07-26T04:40:35;21.10;99.90
6333;DHT22;3199;49.102;8.856;2022-07-26T04:43:01;21.10;99.90
6333;DHT22;3199;49.102;8.856;2022-07-26T04:45:28;21.20;99.90
6333;DHT22;3199;49.102;8.856;2022-07-26T04:47:53;21.30;99.90
6333;DHT22;3199;49.102;8.856;2022-07-26T04:50:20;21.50;99.90
6333;DHT22;3199;49.102;8.856;2022-07-26T04:52:47;21.60;99.90
6333;DHT22;3199;49.102;8.856;2022-07-26T04:55:13;21.70;99.90
6333;DHT22;3199;49.102;8.856;2022-07-26T04:57:39;21.90;99.90
6333;DHT22;3199;49.102;8.856;2022-07-26T05:00:07;22.00;99.90
6333;DHT22;3199;49.102;8.856;2022-07-26T05:02:33;22.20;99.90
6333;DHT22;3199;49.102;8.856;2022-07-26T05:04:59;22.40;99.90
6333;DHT22;3199;49.102;8.856;2022-07-26T05:07:24;22.60;99.90
6333;DHT22;3199;49.102;8.856;2022-07-26T05:09:50;22.80;99.90
6333;DHT22;3199;49.102;8.856;2022-07-26T05:12:15;23.00;99.90
6333;DHT22;3199;49.102;8.856;2022-07-26T05:14:41;23.20;99.90
6333;DHT22;3199;49.102;8.856;2022-07-26T05:17:08;23.50;99.80
6333;DHT22;3199;49.102;8.856;2022-07-26T05:19:34;23.70;99.10
6333;DHT22;3199;49.102;8.856;2022-07-26T05:21:59;23.70;98.90
6333;DHT22;3199;49.102;8.856;2022-07-26T05:24:25;23.50;98.90
6333;DHT22;3199;49.102;8.856;2022-07-26T05:26:50;23.10;99.30
6333;DHT22;3199;49.102;8.856;2022-07-26T05:29:16;22.80;99.70
6333;DHT22;3199;49.102;8.856;2022-07-26T05:31:41;22.60;99.90
6333;DHT22;3199;49.102;8.856;2022-07-26T05:34:07;22.30;99.90
6333;DHT22;3199;49.102;8.856;2022-07-26T05:36:33;22.20;99.90
6333;DHT22;3199;49.102;8.856;2022-07-26T05:38:59;22.50;99.90
6333;DHT22;3199;49.102;8.856;2022-07-26T05:41:25;23.20;99.90
6333;DHT22;3199;49.102;8.856;2022-07-26T05:43:50;23.80;99.20
6333;DHT22;3199;49.102;8.856;2022-07-26T05:46:16;24.30;98.10
6333;DHT22;3199;49.102;8.856;2022-07-26T05:48:42;24.60;97.30
6333;DHT22;3199;49.102;8.856;2022-07-26T05:51:09;24.80;96.60
6333;DHT22;3199;49.102;8.856;2022-07-26T05:53:35;25.10;96.10
6333;DHT22;3199;49.102;8.856;2022-07-26T05:56:00;25.30;95.40
6333;DHT22;3199;49.102;8.856;2022-07-26T05:58:26;25.60;95.10
6333;DHT22;3199;49.102;8.856;2022-07-26T06:00:52;26.10;94.30
6333;DHT22;3199;49.102;8.856;2022-07-26T06:03:17;26.50;93.50
6333;DHT22;3199;49.102;8.856;2022-07-26T06:05:54;26.70;92.40
6333;DHT22;3199;49.102;8.856;2022-07-26T06:08:21;26.70;90.90
6333;DHT22;3199;49.102;8.856;2022-07-26T06:10:48;26.80;91.00
6333;DHT22;3199;49.102;8.856;2022-07-26T06:13:14;27.20;90.60
6333;DHT22;3199;49.102;8.856;2022-07-26T06:15:39;27.60;88.90
6333;DHT22;3199;49.102;8.856;2022-07-26T06:18:07;28.00;85.30
6333;DHT22;3199;49.102;8.856;2022-07-26T06:20:33;28.40;84.30
6333;DHT22;3199;49.102;8.856;2022-07-26T06:22:59;28.90;80.80
6333;DHT22;3199;49.102;8.856;2022-07-26T06:25:25;29.00;78.30
6333;DHT22;3199;49.102;8.856;2022-07-26T06:27:52;29.30;77.40
6333;DHT22;3199;49.102;8.856;2022-07-26T06:30:18;29.10;75.80
6333;DHT22;3199;49.102;8.856;2022-07-26T06:32:43;29.00;75.80
6333;DHT22;3199;49.102;8.856;2022-07-26T06:35:10;28.70;75.30
6333;DHT22;3199;49.102;8.856;2022-07-26T06:37:36;28.60;75.30
6333;DHT22;3199;49.102;8.856;2022-07-26T06:40:03;28.70;75.00
6333;DHT22;3199;49.102;8.856;2022-07-26T06:42:29;28.90;73.60
6333;DHT22;3199;49.102;8.856;2022-07-26T06:44:54;29.20;71.60
6333;DHT22;3199;49.102;8.856;2022-07-26T06:47:20;29.50;69.20
6333;DHT22;3199;49.102;8.856;2022-07-26T06:49:45;29.00;69.10
6333;DHT22;3199;49.102;8.856;2022-07-26T06:52:11;28.10;70.00
6333;DHT22;3199;49.102;8.856;2022-07-26T06:54:36;27.20;72.40
6333;DHT22;3199;49.102;8.856;2022-07-26T06:57:02;26.40;75.60
6333;DHT22;3199;49.102;8.856;2022-07-26T06:59:28;25.70;77.20
6333;DHT22;3199;49.102;8.856;2022-07-26T07:01:53;25.30;79.20
6333;DHT22;3199;49.102;8.856;2022-07-26T07:04:19;24.90;80.70
6333;DHT22;3199;49.102;8.856;2022-07-26T07:06:44;24.50;82.50
6333;DHT22;3199;49.102;8.856;2022-07-26T07:09:10;24.30;83.40
6333;DHT22;3199;49.102;8.856;2022-07-26T07:11:35;24.40;84.40
6333;DHT22;3199;49.102;8.856;2022-07-26T07:14:01;24.60;83.20
6333;DHT22;3199;49.102;8.856;2022-07-26T07:16:27;24.90;83.90
6333;DHT22;3199;49.102;8.856;2022-07-26T07:18:53;25.80;82.40
6333;DHT22;3199;49.102;8.856;2022-07-26T07:21:18;26.20;79.60
6333;DHT22;3199;49.102;8.856;2022-07-26T07:23:44;26.20;79.10
6333;DHT22;3199;49.102;8.856;2022-07-26T07:26:09;26.20;78.60
6333;DHT22;3199;49.102;8.856;2022-07-26T07:28:35;26.70;78.40
6333;DHT22;3199;49.102;8.856;2022-07-26T07:31:03;27.20;77.50
6333;DHT22;3199;49.102;8.856;2022-07-26T07:33:29;27.50;75.80
6333;DHT22;3199;49.102;8.856;2022-07-26T07:35:54;27.10;74.30
6333;DHT22;3199;49.102;8.856;2022-07-26T07:38:20;26.90;75.10
6333;DHT22;3199;49.102;8.856;2022-07-26T07:40:45;26.50;76.20
6333;DHT22;3199;49.102;8.856;2022-07-26T07:43:11;26.80;75.30
6333;DHT22;3199;49.102;8.856;2022-07-26T07:45:37;26.70;74.10
6333;DHT22;3199;49.102;8.856;2022-07-26T07:48:02;27.00;74.30
6333;DHT22;3199;49.102;8.856;2022-07-26T07:50:28;27.20;70.60
6333;DHT22;3199;49.102;8.856;2022-07-26T07:52:54;27.50;69.90
6333;DHT22;3199;49.102;8.856;2022-07-26T07:55:19;28.20;69.30
6333;DHT22;3199;49.102;8.856;2022-07-26T07:57:45;28.50;65.50
6333;DHT22;3199;49.102;8.856;2022-07-26T08:00:11;28.20;66.10
6333;DHT22;3199;49.102;8.856;2022-07-26T08:02:39;28.00;66.80
6333;DHT22;3199;49.102;8.856;2022-07-26T08:05:05;28.00;66.80
6333;DHT22;3199;49.102;8.856;2022-07-26T08:07:32;27.60;66.30
6333;DHT22;3199;49.102;8.856;2022-07-26T08:09:58;27.60;67.70
6333;DHT22;3199;49.102;8.856;2022-07-26T08:12:23;27.60;67.60
6333;DHT22;3199;49.102;8.856;2022-07-26T08:14:49;27.70;67.80
6333;DHT22;3199;49.102;8.856;2022-07-26T08:17:14;28.30;67.40
6333;DHT22;3199;49.102;8.856;2022-07-26T08:19:40;29.10;64.90
6333;DHT22;3199;49.102;8.856;2022-07-26T08:22:05;29.20;61.60
6333;DHT22;3199;49.102;8.856;2022-07-26T08:24:33;28.90;63.40
6333;DHT22;3199;49.102;8.856;2022-07-26T08:26:58;28.50;64.10
6333;DHT22;3199;49.102;8.856;2022-07-26T08:29:24;28.60;64.10
6333;DHT22;3199;49.102;8.856;2022-07-26T08:31:49;29.20;62.20
6333;DHT22;3199;49.102;8.856;2022-07-26T08:34:17;29.90;60.20
6333;DHT22;3199;49.102;8.856;2022-07-26T08:36:43;29.80;58.10
6333;DHT22;3199;49.102;8.856;2022-07-26T08:39:09;29.80;58.90
6333;DHT22;3199;49.102;8.856;2022-07-26T08:41:35;30.20;58.70
6333;DHT22;3199;49.102;8.856;2022-07-26T08:44:09;30.80;57.50
6333;DHT22;3199;49.102;8.856;2022-07-26T08:46:36;31.20;56.80
6333;DHT22;3199;49.102;8.856;2022-07-26T08:49:03;30.50;55.80
6333;DHT22;3199;49.102;8.856;2022-07-26T08:51:30;29.90;57.40
6333;DHT22;3199;49.102;8.856;2022-07-26T08:53:57;29.30;58.60
6333;DHT22;3199;49.102;8.856;2022-07-26T08:56:23;29.30;59.90
6333;DHT22;3199;49.102;8.856;2022-07-26T08:58:48;29.30;59.50
6333;DHT22;3199;49.102;8.856;2022-07-26T09:01:14;28.70;59.70
6333;DHT22;3199;49.102;8.856;2022-07-26T09:03:43;28.30;61.60
6333;DHT22;3199;49.102;8.856;2022-07-26T09:06:20;28.30;62.00
6333;DHT22;3199;49.102;8.856;2022-07-26T09:08:51;28.50;62.70
6333;DHT22;3199;49.102;8.856;2022-07-26T09:11:30;28.60;60.90
6333;DHT22;3199;49.102;8.856;2022-07-26T09:13:59;28.40;61.60
6333;DHT22;3199;49.102;8.856;2022-07-26T09:16:25;27.80;61.40
6333;DHT22;3199;49.102;8.856;2022-07-26T09:18:51;27.80;63.00
6333;DHT22;3199;49.102;8.856;2022-07-26T09:21:30;28.40;62.90
6333;DHT22;3199;49.102;8.856;2022-07-26T09:23:56;29.30;61.20
6333;DHT22;3199;49.102;8.856;2022-07-26T09:26:22;29.70;59.10
6333;DHT22;3199;49.102;8.856;2022-07-26T09:29:02;29.90;58.80
6333;DHT22;3199;49.102;8.856;2022-07-26T09:31:28;29.70;59.20
6333;DHT22;3199;49.102;8.856;2022-07-26T09:33:54;29.80;59.70
6333;DHT22;3199;49.102;8.856;2022-07-26T09:36:19;29.90;58.20
6333;DHT22;3199;49.102;8.856;2022-07-26T09:38:46;30.10;57.00
6333;DHT22;3199;49.102;8.856;2022-07-26T09:43:46;30.00;56.80
6333;DHT22;3199;49.102;8.856;2022-07-26T09:46:12;29.80;56.20
6333;DHT22;3199;49.102;8.856;2022-07-26T09:48:38;29.90;56.20
6333;DHT22;3199;49.102;8.856;2022-07-26T09:51:05;30.10;56.00
6333;DHT22;3199;49.102;8.856;2022-07-26T09:53:43;29.60;55.00
6333;DHT22;3199;49.102;8.856;2022-07-26T09:56:09;29.30;55.60
6333;DHT22;3199;49.102;8.856;2022-07-26T09:58:36;29.60;55.70
6333;DHT22;3199;49.102;8.856;2022-07-26T10:01:03;30.10;55.60
6333;DHT22;3199;49.102;8.856;2022-07-26T10:03:29;29.90;54.80
6333;DHT22;3199;49.102;8.856;2022-07-26T10:05:57;29.80;54.70
6333;DHT22;3199;49.102;8.856;2022-07-26T10:08:23;29.60;54.90
6333;DHT22;3199;49.102;8.856;2022-07-26T10:10:52;29.60;54.90
6333;DHT22;3199;49.102;8.856;2022-07-26T10:13:21;30.10;54.60
6333;DHT22;3199;49.102;8.856;2022-07-26T10:15:49;30.60;53.70
6333;DHT22;3199;49.102;8.856;2022-07-26T10:23:43;30.50;53.40
6333;DHT22;3199;49.102;8.856;2022-07-26T10:29:22;30.10;53.80
6333;DHT22;3199;49.102;8.856;2022-07-26T10:31:49;29.70;53.10
6333;DHT22;3199;49.102;8.856;2022-07-26T10:36:59;29.20;53.80
6333;DHT22;3199;49.102;8.856;2022-07-26T10:39:25;29.20;53.30
6333;DHT22;3199;49.102;8.856;2022-07-26T10:42:00;29.10;53.80
6333;DHT22;3199;49.102;8.856;2022-07-26T10:44:27;28.90;53.80
6333;DHT22;3199;49.102;8.856;2022-07-26T10:46:55;28.60;53.60
6333;DHT22;3199;49.102;8.856;2022-07-26T10:52:17;28.10;54.70
6333;DHT22;3199;49.102;8.856;2022-07-26T10:57:28;28.70;55.30
6333;DHT22;3199;49.102;8.856;2022-07-26T10:59:54;29.40;55.10
6333;DHT22;3199;49.102;8.856;2022-07-26T11:02:28;30.20;53.10
6333;DHT22;3199;49.102;8.856;2022-07-26T11:05:07;30.80;51.70
6333;DHT22;3199;49.102;8.856;2022-07-26T11:10:12;31.00;51.00
6333;DHT22;3199;49.102;8.856;2022-07-26T11:12:37;31.10;51.30
6333;DHT22;3199;49.102;8.856;2022-07-26T11:15:14;31.20;52.20
6333;DHT22;3199;49.102;8.856;2022-07-26T11:17:40;31.40;50.60
6333;DHT22;3199;49.102;8.856;2022-07-26T11:20:06;31.50;49.50
6333;DHT22;3199;49.102;8.856;2022-07-26T11:22:35;31.50;49.50
6333;DHT22;3199;49.102;8.856;2022-07-26T11:25:01;31.10;49.40
6333;DHT22;3199;49.102;8.856;2022-07-26T11:27:26;30.50;49.50
6333;DHT22;3199;49.102;8.856;2022-07-26T11:29:52;29.90;49.50
6333;DHT22;3199;49.102;8.856;2022-07-26T11:32:22;29.70;49.60
6333;DHT22;3199;49.102;8.856;2022-07-26T11:35:00;29.80;49.70
6333;DHT22;3199;49.102;8.856;2022-07-26T11:37:26;30.00;49.50
6333;DHT22;3199;49.102;8.856;2022-07-26T11:39:51;30.20;50.10
6333;DHT22;3199;49.102;8.856;2022-07-26T11:42:18;29.80;50.00
6333;DHT22;3199;49.102;8.856;2022-07-26T11:44:46;29.80;51.80
6333;DHT22;3199;49.102;8.856;2022-07-26T11:47:15;30.10;51.60
6333;DHT22;3199;49.102;8.856;2022-07-26T11:49:41;30.00;50.90
6333;DHT22;3199;49.102;8.856;2022-07-26T11:52:07;29.50;50.20
6333;DHT22;3199;49.102;8.856;2022-07-26T11:54:44;29.40;52.50
6333;DHT22;3199;49.102;8.856;2022-07-26T11:57:10;29.70;50.60
6333;DHT22;3199;49.102;8.856;2022-07-26T11:59:37;30.00;50.40
6333;DHT22;3199;49.102;8.856;2022-07-26T12:02:05;30.10;50.60
6333;DHT22;3199;49.102;8.856;2022-07-26T12:04:33;30.10;50.20
6333;DHT22;3199;49.102;8.856;2022-07-26T12:07:00;30.50;49.80
6333;DHT22;3199;49.102;8.856;2022-07-26T12:12:00;30.70;48.80
6333;DHT22;3199;49.102;8.856;2022-07-26T12:14:34;30.80;50.00
6333;DHT22;3199;49.102;8.856;2022-07-26T12:17:10;31.10;49.90
6333;DHT22;3199;49.102;8.856;2022-07-26T12:19:36;31.50;49.50
6333;DHT22;3199;49.102;8.856;2022-07-26T12:22:11;31.80;48.50
6333;DHT22;3199;49.102;8.856;2022-07-26T12:27:27;31.30;48.90
6333;DHT22;3199;49.102;8.856;2022-07-26T12:29:54;30.90;50.20
6333;DHT22;3199;49.102;8.856;2022-07-26T12:32:29;30.60;49.60
6333;DHT22;3199;49.102;8.856;2022-07-26T12:35:07;30.30;50.00
6333;DHT22;3199;49.102;8.856;2022-07-26T12:37:47;30.10;50.40
6333;DHT22;3199;49.102;8.856;2022-07-26T12:40:13;30.10;50.00
6333;DHT22;3199;49.102;8.856;2022-07-26T12:45:22;30.10;49.80
6333;DHT22;3199;49.102;8.856;2022-07-26T12:47:51;30.10;50.20
6333;DHT22;3199;49.102;8.856;2022-07-26T12:50:19;29.90;50.70
6333;DHT22;3199;49.102;8.856;2022-07-26T12:52:45;29.70;50.50
6333;DHT22;3199;49.102;8.856;2022-07-26T12:55:13;29.50;50.70
6333;DHT22;3199;49.102;8.856;2022-07-26T12:57:41;29.30;50.80
6333;DHT22;3199;49.102;8.856;2022-07-26T13:00:07;29.30;51.50
6333;DHT22;3199;49.102;8.856;2022-07-26T13:02:35;29.30;52.30
6333;DHT22;3199;49.102;8.856;2022-07-26T13:05:01;29.40;52.00
6333;DHT22;3199;49.102;8.856;2022-07-26T13:07:28;29.60;51.90
6333;DHT22;3199;49.102;8.856;2022-07-26T13:09:54;29.80;51.30
6333;DHT22;3199;49.102;8.856;2022-07-26T13:12:20;29.80;51.20
6333;DHT22;3199;49.102;8.856;2022-07-26T13:14:46;29.70;51.00
6333;DHT22;3199;49.102;8.856;2022-07-26T13:17:11;29.60;50.40
6333;DHT22;3199;49.102;8.856;2022-07-26T13:19:37;29.60;51.00
6333;DHT22;3199;49.102;8.856;2022-07-26T13:22:04;29.80;50.40
6333;DHT22;3199;49.102;8.856;2022-07-26T13:24:31;29.90;49.70
6333;DHT22;3199;49.102;8.856;2022-07-26T13:26:57;30.10;50.10
6333;DHT22;3199;49.102;8.856;2022-07-26T13:29:23;30.30;50.00
6333;DHT22;3199;49.102;8.856;2022-07-26T13:31:49;30.30;49.00
6333;DHT22;3199;49.102;8.856;2022-07-26T13:34:15;30.30;49.40
6333;DHT22;3199;49.102;8.856;2022-07-26T13:36:41;30.40;49.10
6333;DHT22;3199;49.102;8.856;2022-07-26T13:39:06;30.40;49.10
6333;DHT22;3199;49.102;8.856;2022-07-26T13:41:32;30.30;48.60
6333;DHT22;3199;49.102;8.856;2022-07-26T13:43:58;30.10;48.80
6333;DHT22;3199;49.102;8.856;2022-07-26T13:46:24;29.80;49.60
6333;DHT22;3199;49.102;8.856;2022-07-26T13:48:54;29.80;49.60
6333;DHT22;3199;49.102;8.856;2022-07-26T13:51:20;29.70;50.60
6333;DHT22;3199;49.102;8.856;2022-07-26T13:53:45;29.70;50.70
6333;DHT22;3199;49.102;8.856;2022-07-26T13:56:11;29.70;50.60
6333;DHT22;3199;49.102;8.856;2022-07-26T13:58:36;29.70;50.20
6333;DHT22;3199;49.102;8.856;2022-07-26T14:01:02;29.70;50.60
6333;DHT22;3199;49.102;8.856;2022-07-26T14:03:28;29.70;50.60
6333;DHT22;3199;49.102;8.856;2022-07-26T14:05:54;29.70;51.00
6333;DHT22;3199;49.102;8.856;2022-07-26T14:08:19;29.60;50.60
6333;DHT22;3199;49.102;8.856;2022-07-26T14:10:45;29.60;51.00
6333;DHT22;3199;49.102;8.856;2022-07-26T14:13:11;29.50;50.50
6333;DHT22;3199;49.102;8.856;2022-07-26T14:15:37;29.50;50.50
6333;DHT22;3199;49.102;8.856;2022-07-26T14:18:03;29.40;50.00
6333;DHT22;3199;49.102;8.856;2022-07-26T14:20:29;29.60;50.90
6333;DHT22;3199;49.102;8.856;2022-07-26T14:22:54;29.60;50.80
6333;DHT22;3199;49.102;8.856;2022-07-26T14:25:24;29.50;50.20
6333;DHT22;3199;49.102;8.856;2022-07-26T14:27:50;29.40;50.50
6333;DHT22;3199;49.102;8.856;2022-07-26T14:30:17;29.30;50.60
6333;DHT22;3199;49.102;8.856;2022-07-26T14:32:42;29.10;50.70
6333;DHT22;3199;49.102;8.856;2022-07-26T14:35:08;28.90;51.30
6333;DHT22;3199;49.102;8.856;2022-07-26T14:37:34;28.80;51.60
6333;DHT22;3199;49.102;8.856;2022-07-26T14:40:01;28.70;51.70
6333;DHT22;3199;49.102;8.856;2022-07-26T14:42:26;28.50;51.50
6333;DHT22;3199;49.102;8.856;2022-07-26T14:44:52;28.40;52.00
6333;DHT22;3199;49.102;8.856;2022-07-26T14:47:18;28.40;52.30
6333;DHT22;3199;49.102;8.856;2022-07-26T14:49:43;28.50;51.70
6333;DHT22;3199;49.102;8.856;2022-07-26T14:52:09;28.60;51.10
6333;DHT22;3199;49.102;8.856;2022-07-26T14:54:35;28.70;51.40
6333;DHT22;3199;49.102;8.856;2022-07-26T14:57:00;28.80;50.80
6333;DHT22;3199;49.102;8.856;2022-07-26T14:59:26;28.80;51.10
6333;DHT22;3199;49.102;8.856;2022-07-26T15:01:52;28.70;51.40
6333;DHT22;3199;49.102;8.856;2022-07-26T15:04:17;28.80;51.00
6333;DHT22;3199;49.102;8.856;2022-07-26T15:06:43;28.50;50.60
6333;DHT22;3199;49.102;8.856;2022-07-26T15:09:08;28.30;50.20
6333;DHT22;3199;49.102;8.856;2022-07-26T15:11:34;28.40;50.80
6333;DHT22;3199;49.102;8.856;2022-07-26T15:13:59;28.40;51.30
6333;DHT22;3199;49.102;8.856;2022-07-26T15:16:25;28.50;51.30
6333;DHT22;3199;49.102;8.856;2022-07-26T15:18:50;28.60;51.50
6333;DHT22;3199;49.102;8.856;2022-07-26T15:21:16;28.70;51.30
6333;DHT22;3199;49.102;8.856;2022-07-26T15:23:41;28.80;50.80
6333;DHT22;3199;49.102;8.856;2022-07-26T15:26:07;28.80;51.00
6333;DHT22;3199;49.102;8.856;2022-07-26T15:28:33;28.90;50.80
6333;DHT22;3199;49.102;8.856;2022-07-26T15:30:58;28.70;51.00
6333;DHT22;3199;49.102;8.856;2022-07-26T15:33:24;28.50;50.80
6333;DHT22;3199;49.102;8.856;2022-07-26T15:35:49;28.50;51.10
6333;DHT22;3199;49.102;8.856;2022-07-26T15:38:17;28.40;50.90
6333;DHT22;3199;49.102;8.856;2022-07-26T15:40:43;28.20;51.40
6333;DHT22;3199;49.102;8.856;2022-07-26T15:43:08;28.00;51.20
6333;DHT22;3199;49.102;8.856;2022-07-26T15:45:34;27.90;51.70
6333;DHT22;3199;49.102;8.856;2022-07-26T15:48:01;27.70;52.10
6333;DHT22;3199;49.102;8.856;2022-07-26T15:50:29;27.60;52.60
6333;DHT22;3199;49.102;8.856;2022-07-26T15:52:54;27.70;52.60
6333;DHT22;3199;49.102;8.856;2022-07-26T15:55:20;27.70;52.50
6333;DHT22;3199;49.102;8.856;2022-07-26T15:57:45;27.80;52.20
6333;DHT22;3199;49.102;8.856;2022-07-26T16:00:11;28.00;52.40
6333;DHT22;3199;49.102;8.856;2022-07-26T16:02:38;28.10;52.10
6333;DHT22;3199;49.102;8.856;2022-07-26T16:05:04;28.10;51.80
6333;DHT22;3199;49.102;8.856;2022-07-26T16:07:30;28.20;51.90
6333;DHT22;3199;49.102;8.856;2022-07-26T16:09:56;28.20;52.30
6333;DHT22;3199;49.102;8.856;2022-07-26T16:12:22;28.20;51.50
6333;DHT22;3199;49.102;8.856;2022-07-26T16:14:47;28.20;51.50
6333;DHT22;3199;49.102;8.856;2022-07-26T16:17:13;28.10;51.40
6333;DHT22;3199;49.102;8.856;2022-07-26T16:19:38;28.10;52.00
6333;DHT22;3199;49.102;8.856;2022-07-26T16:22:04;28.00;51.80
6333;DHT22;3199;49.102;8.856;2022-07-26T16:24:31;27.90;52.10
6333;DHT22;3199;49.102;8.856;2022-07-26T16:26:57;27.80;52.30
6333;DHT22;3199;49.102;8.856;2022-07-26T16:29:22;27.70;52.50